createdAt,value
2023-05-23T00:01:21.260Z,6.80
2023-05-23T00:03:49.294Z,9.20
2023-05-23T00:06:24.343Z,7.87
2023-05-23T00:08:51.120Z,9.40
2023-05-23T00:11:19.358Z,8.20
2023-05-23T00:13:46.503Z,8.23
2023-05-23T00:16:13.172Z,10.00
2023-05-23T00:18:42.997Z,9.03
2023-05-23T00:21:10.077Z,9.13
2023-05-23T00:23:36.785Z,8.13
2023-05-23T00:26:03.740Z,10.43
2023-05-23T00:28:30.417Z,9.60
2023-05-23T00:30:57.109Z,8.80
2023-05-23T00:33:23.939Z,9.50
2023-05-23T00:35:50.649Z,8.03
2023-05-23T00:38:18.026Z,8.20
2023-05-23T00:40:44.702Z,10.40
2023-05-23T00:43:12.295Z,9.00
2023-05-23T00:45:39.044Z,8.67
2023-05-23T00:48:06.405Z,7.30
2023-05-23T00:50:33.804Z,9.03
2023-05-23T00:53:01.518Z,9.50
2023-05-23T00:55:28.889Z,8.40
2023-05-23T00:57:57.046Z,11.77
2023-05-23T01:00:25.174Z,7.93
2023-05-23T01:02:53.363Z,7.73
2023-05-23T01:05:22.488Z,7.27
2023-05-23T01:07:50.945Z,7.13
2023-05-23T01:10:20.558Z,7.07
2023-05-23T01:13:29.268Z,7.93
2023-05-23T01:16:04.608Z,7.87
2023-05-23T01:18:43.724Z,6.83
2023-05-23T01:21:17.180Z,6.67
2023-05-23T01:24:02.709Z,6.80
2023-05-23T01:26:36.876Z,7.83
2023-05-23T01:29:14.492Z,10.17
2023-05-23T01:31:47.380Z,12.60
2023-05-23T01:34:14.860Z,10.37
2023-05-23T01:36:43.481Z,13.80
2023-05-23T01:39:11.217Z,13.60
2023-05-23T01:41:38.088Z,13.70
2023-05-23T01:44:05.640Z,16.20
2023-05-23T01:46:34.043Z,17.47
2023-05-23T01:49:02.823Z,14.73
2023-05-23T01:51:30.624Z,16.30
2023-05-23T01:53:57.854Z,21.57
2023-05-23T01:56:24.917Z,17.20
2023-05-23T01:58:51.739Z,23.40
2023-05-23T02:01:18.663Z,23.00
2023-05-23T02:03:45.610Z,27.17
2023-05-23T02:06:12.328Z,26.13
2023-05-23T02:08:39.082Z,27.37
2023-05-23T02:11:05.818Z,23.83
2023-05-23T02:13:32.428Z,25.00
2023-05-23T02:15:59.105Z,22.73
2023-05-23T02:18:29.834Z,24.03
2023-05-23T02:20:56.573Z,18.33
2023-05-23T02:23:23.230Z,22.67
2023-05-23T02:25:49.992Z,26.27
2023-05-23T02:28:16.646Z,26.53
2023-05-23T02:30:43.299Z,25.47
2023-05-23T02:33:10.745Z,19.77
2023-05-23T02:35:37.423Z,19.83
2023-05-23T02:38:04.067Z,22.10
2023-05-23T02:40:30.666Z,17.33
2023-05-23T02:42:57.392Z,20.37
2023-05-23T02:45:24.616Z,19.20
2023-05-23T02:47:51.271Z,25.20
2023-05-23T02:50:17.947Z,19.57
2023-05-23T02:52:44.906Z,19.33
2023-05-23T02:55:11.547Z,18.63
2023-05-23T02:57:38.145Z,17.13
2023-05-23T03:00:05.209Z,19.47
2023-05-23T03:02:31.891Z,13.63
2023-05-23T03:04:58.576Z,13.37
2023-05-23T03:07:28.447Z,14.40
2023-05-23T03:09:56.017Z,14.83
2023-05-23T03:12:22.651Z,16.40
2023-05-23T03:14:49.258Z,18.33
2023-05-23T03:17:16.169Z,16.30
2023-05-23T03:19:42.843Z,13.20
2023-05-23T03:22:09.442Z,21.57
2023-05-23T03:24:36.056Z,18.90
2023-05-23T03:27:03.034Z,16.30
2023-05-23T03:29:29.669Z,12.53
2023-05-23T03:31:56.493Z,23.17
2023-05-23T03:34:23.819Z,13.23
2023-05-23T03:36:50.904Z,16.83
2023-05-23T03:39:17.598Z,21.53
2023-05-23T03:41:44.368Z,17.07
2023-05-23T03:44:11.132Z,21.30
2023-05-23T03:46:39.644Z,10.73
2023-05-23T03:49:06.720Z,12.60
2023-05-23T03:51:34.227Z,11.93
2023-05-23T03:54:00.813Z,11.70
2023-05-23T03:56:27.421Z,13.63
2023-05-23T03:58:54.008Z,11.83
2023-05-23T04:01:20.788Z,10.40
2023-05-23T04:03:49.709Z,12.00
2023-05-23T04:06:17.127Z,11.80
2023-05-23T04:08:43.729Z,12.27
2023-05-23T04:11:10.337Z,18.43
2023-05-23T04:13:37.074Z,10.97
2023-05-23T04:16:05.656Z,16.93
2023-05-23T04:18:39.245Z,10.87
2023-05-23T04:21:06.364Z,14.40
2023-05-23T04:23:33.089Z,13.53
2023-05-23T04:26:00.095Z,9.20
2023-05-23T04:28:27.745Z,8.83
2023-05-23T04:30:54.591Z,9.27
2023-05-23T04:33:21.608Z,8.53
2023-05-23T04:35:49.277Z,6.43
2023-05-23T04:38:15.887Z,7.67
2023-05-23T04:40:42.830Z,8.50
2023-05-23T04:43:10.094Z,8.77
2023-05-23T04:45:36.684Z,7.93
2023-05-23T04:48:03.932Z,9.30
2023-05-23T04:50:33.099Z,6.50
2023-05-23T04:52:59.784Z,9.40
2023-05-23T04:55:26.567Z,6.47
2023-05-23T04:57:53.319Z,7.77
2023-05-23T05:00:20.356Z,11.37
2023-05-23T05:02:46.994Z,11.13
2023-05-23T05:05:13.782Z,13.67
2023-05-23T05:07:40.781Z,11.37
2023-05-23T05:10:07.873Z,14.40
2023-05-23T05:12:34.560Z,7.67
2023-05-23T05:15:02.567Z,11.63
2023-05-23T05:17:30.030Z,11.47
2023-05-23T05:19:56.959Z,11.03
2023-05-23T05:22:23.851Z,16.17
2023-05-23T05:24:50.518Z,15.03
2023-05-23T05:27:17.170Z,11.23
2023-05-23T05:29:43.961Z,9.83
2023-05-23T05:32:10.783Z,18.20
2023-05-23T05:34:37.816Z,8.60
2023-05-23T05:37:04.870Z,10.90
2023-05-23T05:39:31.466Z,10.03
2023-05-23T05:41:59.255Z,8.47
2023-05-23T05:44:26.925Z,12.27
2023-05-23T05:46:53.529Z,11.47
2023-05-23T05:49:20.149Z,9.57
2023-05-23T05:51:47.268Z,9.70
2023-05-23T05:54:14.225Z,9.53
2023-05-23T05:56:42.194Z,10.10
2023-05-23T05:59:08.858Z,6.10
2023-05-23T06:01:35.782Z,7.53
2023-05-23T06:04:02.828Z,10.33
2023-05-23T06:06:29.566Z,6.60
2023-05-23T06:08:56.251Z,5.47
2023-05-23T06:11:22.855Z,6.93
2023-05-23T06:13:49.449Z,8.57
2023-05-23T06:16:16.580Z,5.53
2023-05-23T06:18:43.236Z,5.03
2023-05-23T06:21:10.630Z,7.83
2023-05-23T06:23:37.262Z,10.00
2023-05-23T06:26:07.897Z,9.97
2023-05-23T06:28:34.756Z,5.40
2023-05-23T06:31:01.438Z,6.30
2023-05-23T06:33:28.362Z,5.77
2023-05-23T06:35:55.055Z,5.40
2023-05-23T06:38:22.174Z,2.93
2023-05-23T06:40:48.763Z,5.77
2023-05-23T06:43:15.399Z,3.03
2023-05-23T06:45:42.020Z,4.73
2023-05-23T06:48:08.642Z,4.47
2023-05-23T06:50:35.774Z,3.67
2023-05-23T06:53:02.450Z,2.00
2023-05-23T06:55:29.059Z,3.53
2023-05-23T06:57:55.940Z,2.93
2023-05-23T07:00:22.578Z,3.37
2023-05-23T07:02:49.238Z,3.97
2023-05-23T07:05:16.336Z,3.87
2023-05-23T07:07:43.658Z,8.00
2023-05-23T07:10:10.896Z,7.23
2023-05-23T07:12:37.582Z,8.37
2023-05-23T07:15:04.505Z,4.03
2023-05-23T07:17:31.665Z,4.47
2023-05-23T07:19:58.285Z,8.50
2023-05-23T07:22:25.034Z,6.30
2023-05-23T07:24:51.636Z,5.77
2023-05-23T07:27:18.488Z,7.50
2023-05-23T07:29:45.120Z,9.27
2023-05-23T07:32:11.719Z,9.10
2023-05-23T07:34:38.367Z,4.43
2023-05-23T07:37:05.078Z,8.40
2023-05-23T07:39:31.700Z,7.33
2023-05-23T07:41:58.376Z,3.93
2023-05-23T07:44:25.456Z,5.33
2023-05-23T07:46:52.395Z,5.17
2023-05-23T07:49:19.386Z,6.03
2023-05-23T07:51:46.017Z,4.70
2023-05-23T07:54:15.084Z,5.90
2023-05-23T07:56:43.449Z,5.23
2023-05-23T07:59:10.141Z,7.43
2023-05-23T08:01:37.357Z,4.27
2023-05-23T08:04:04.227Z,7.43
2023-05-23T08:06:31.844Z,6.27
2023-05-23T08:08:58.499Z,4.60
2023-05-23T08:11:25.264Z,7.33
2023-05-23T08:13:52.036Z,6.67
2023-05-23T08:16:18.813Z,8.40
2023-05-23T08:18:45.932Z,9.50
2023-05-23T08:21:12.575Z,4.73
2023-05-23T08:23:39.174Z,7.33
2023-05-23T08:26:06.054Z,7.20
2023-05-23T08:28:34.605Z,5.70
2023-05-23T08:31:01.200Z,4.03
2023-05-23T08:33:27.818Z,5.33
2023-05-23T08:35:54.473Z,8.00
2023-05-23T08:38:22.006Z,8.43
2023-05-23T08:40:53.482Z,4.53
2023-05-23T08:43:20.424Z,6.90
2023-05-23T08:45:49.028Z,8.07
2023-05-23T08:48:19.170Z,8.47
2023-05-23T08:50:47.726Z,7.00
2023-05-23T08:53:20.866Z,4.53
2023-05-23T08:55:48.769Z,5.90
2023-05-23T08:58:16.033Z,7.40
2023-05-23T09:00:43.799Z,7.53
2023-05-23T09:03:12.275Z,6.17
2023-05-23T09:05:39.031Z,4.33
2023-05-23T09:08:05.876Z,3.53
2023-05-23T09:10:32.584Z,9.13
2023-05-23T09:12:59.295Z,5.90
2023-05-23T09:15:27.195Z,4.33
2023-05-23T09:17:53.844Z,3.73
2023-05-23T09:20:21.808Z,2.90
2023-05-23T09:22:49.116Z,5.10
2023-05-23T09:25:16.020Z,8.13
2023-05-23T09:27:45.755Z,3.97
2023-05-23T09:30:15.132Z,6.80
2023-05-23T09:32:42.241Z,3.77
2023-05-23T09:35:13.668Z,3.80
2023-05-23T09:37:46.175Z,3.43
2023-05-23T09:40:14.679Z,7.83
2023-05-23T09:42:48.664Z,5.57
2023-05-23T09:45:17.111Z,6.50
2023-05-23T09:47:54.322Z,11.33
2023-05-23T09:50:22.203Z,9.33
2023-05-23T09:52:49.107Z,7.33
2023-05-23T09:55:15.902Z,4.87
2023-05-23T09:57:44.068Z,11.97
2023-05-23T10:00:12.302Z,6.87
2023-05-23T10:02:45.220Z,4.97
2023-05-23T10:05:22.250Z,7.40
2023-05-23T10:07:48.968Z,5.37
2023-05-23T10:10:15.897Z,8.20
2023-05-23T10:12:52.132Z,5.27
2023-05-23T10:15:19.936Z,6.47
2023-05-23T10:18:12.538Z,5.53
2023-05-23T10:20:41.946Z,7.53
2023-05-23T10:23:08.951Z,4.70
2023-05-23T10:25:37.032Z,5.13
2023-05-23T10:28:04.897Z,6.57
2023-05-23T10:30:31.899Z,6.70
2023-05-23T10:33:00.090Z,6.97
2023-05-23T10:35:40.780Z,10.03
2023-05-23T10:38:10.143Z,5.47
2023-05-23T10:40:55.405Z,4.27
2023-05-23T10:43:24.804Z,10.20
2023-05-23T10:45:52.011Z,7.47
2023-05-23T10:48:35.717Z,5.87
2023-05-23T10:51:09.693Z,9.67
2023-05-23T10:53:41.954Z,10.53
2023-05-23T10:56:11.135Z,6.77
2023-05-23T10:58:39.535Z,5.13
2023-05-23T11:01:16.354Z,6.10
2023-05-23T11:03:45.820Z,5.10
2023-05-23T11:06:33.825Z,7.30
2023-05-23T11:09:13.579Z,3.33
2023-05-23T11:11:59.217Z,4.67
2023-05-23T11:14:38.213Z,5.00
2023-05-23T11:17:19.812Z,5.43
2023-05-23T11:19:58.852Z,6.72
2023-05-23T11:22:30.501Z,5.88
2023-05-23T11:24:58.783Z,5.13
2023-05-23T11:27:37.832Z,5.35
2023-05-23T11:30:10.201Z,4.80
2023-05-23T11:32:37.434Z,6.33
2023-05-23T11:35:06.540Z,6.00
2023-05-23T11:37:33.697Z,7.43
2023-05-23T11:40:20.596Z,6.27
2023-05-23T11:42:47.356Z,6.00
2023-05-23T11:45:13.991Z,9.97
2023-05-23T11:47:41.775Z,6.00
2023-05-23T11:50:08.965Z,3.73
2023-05-23T11:52:35.571Z,2.90
2023-05-23T11:55:03.816Z,7.63
2023-05-23T11:57:30.809Z,5.90
2023-05-23T11:59:57.475Z,6.83
2023-05-23T12:02:28.261Z,4.60
2023-05-23T12:04:54.920Z,6.07
2023-05-23T12:07:21.722Z,9.53
2023-05-23T12:09:48.637Z,7.97
2023-05-23T12:12:16.314Z,7.80
2023-05-23T12:14:46.163Z,6.00
2023-05-23T12:17:13.722Z,4.60
2023-05-23T12:19:45.508Z,5.73
2023-05-23T12:22:12.195Z,7.27
2023-05-23T12:24:46.793Z,5.13
2023-05-23T12:27:13.464Z,3.60
2023-05-23T12:29:40.063Z,4.53
2023-05-23T12:32:07.491Z,5.37
2023-05-23T12:34:34.179Z,5.60
2023-05-23T12:37:18.115Z,8.97
2023-05-23T12:39:46.207Z,4.67
2023-05-23T12:42:12.980Z,4.37
2023-05-23T12:44:43.492Z,4.07
2023-05-23T12:47:13.303Z,5.10
2023-05-23T12:49:40.005Z,7.67
2023-05-23T12:52:07.895Z,4.47
2023-05-23T12:54:34.524Z,5.10
2023-05-23T12:57:01.833Z,5.50
2023-05-23T12:59:31.374Z,8.67
2023-05-23T13:01:58.306Z,5.83
2023-05-23T13:04:25.502Z,5.80
2023-05-23T13:06:52.808Z,5.80
2023-05-23T13:09:19.557Z,5.47
2023-05-23T13:11:46.624Z,6.60
2023-05-23T13:14:13.975Z,4.20
2023-05-23T13:16:40.735Z,6.80
2023-05-23T13:19:07.717Z,4.13
2023-05-23T13:21:34.374Z,3.20
2023-05-23T13:24:01.334Z,6.33
2023-05-23T13:26:27.995Z,9.57
2023-05-23T13:28:54.606Z,4.00
2023-05-23T13:31:21.708Z,5.13
2023-05-23T13:33:48.344Z,7.00
2023-05-23T13:36:15.040Z,4.27
2023-05-23T13:38:41.726Z,7.03
2023-05-23T13:41:08.842Z,2.43
2023-05-23T13:43:35.711Z,7.23
2023-05-23T13:46:03.020Z,6.60
2023-05-23T13:48:29.730Z,5.80
2023-05-23T13:50:56.607Z,5.67
2023-05-23T13:53:23.349Z,3.30
2023-05-23T13:55:50.228Z,2.83
2023-05-23T13:58:16.902Z,5.07
2023-05-23T14:00:44.129Z,7.20
2023-05-23T14:03:11.128Z,3.67
2023-05-23T14:05:37.915Z,6.83
2023-05-23T14:08:04.981Z,4.07
2023-05-23T14:10:33.254Z,3.73
2023-05-23T14:12:59.960Z,6.83
2023-05-23T14:15:27.026Z,5.77
2023-05-23T14:17:56.139Z,7.33
2023-05-23T14:20:23.449Z,6.60
2023-05-23T14:22:51.148Z,3.90
2023-05-23T14:25:18.403Z,4.67
2023-05-23T14:27:45.324Z,6.50
2023-05-23T14:30:14.966Z,2.67
2023-05-23T14:32:41.875Z,2.77
2023-05-23T14:35:11.001Z,5.33
2023-05-23T14:37:38.066Z,2.40
2023-05-23T14:40:06.749Z,2.30
2023-05-23T14:42:33.634Z,4.17
2023-05-23T14:45:00.314Z,5.83
2023-05-23T14:47:27.151Z,4.93
2023-05-23T14:49:53.781Z,3.87
2023-05-23T14:52:20.488Z,6.87
2023-05-23T14:54:47.172Z,5.30
2023-05-23T14:57:13.857Z,4.10
2023-05-23T14:59:40.444Z,7.40
2023-05-23T15:02:08.123Z,2.47
2023-05-23T15:04:35.891Z,5.17
2023-05-23T15:07:02.670Z,5.70
2023-05-23T15:09:29.258Z,5.87
2023-05-23T15:11:56.219Z,5.40
2023-05-23T15:14:23.223Z,2.80
2023-05-23T15:16:50.578Z,7.13
2023-05-23T15:19:17.340Z,4.57
2023-05-23T15:21:50.377Z,6.50
2023-05-23T15:24:18.342Z,5.67
2023-05-23T15:26:44.975Z,3.80
2023-05-23T15:29:12.534Z,4.30
2023-05-23T15:31:39.152Z,3.57
2023-05-23T15:34:05.830Z,5.23
2023-05-23T15:36:32.458Z,6.43
2023-05-23T15:38:59.522Z,5.30
2023-05-23T15:41:26.508Z,7.03
2023-05-23T15:43:53.361Z,5.30
2023-05-23T15:46:20.138Z,5.70
2023-05-23T15:48:46.806Z,7.67
2023-05-23T15:51:13.468Z,9.17
2023-05-23T15:53:58.734Z,6.17
2023-05-23T15:56:27.853Z,5.00
2023-05-23T15:58:55.039Z,7.13
2023-05-23T16:01:21.778Z,3.77
2023-05-23T16:03:49.828Z,2.67
2023-05-23T16:06:16.840Z,4.93
2023-05-23T16:08:43.528Z,7.70
2023-05-23T16:11:10.167Z,5.63
2023-05-23T16:13:36.879Z,7.87
2023-05-23T16:16:04.512Z,5.00
2023-05-23T16:18:31.379Z,6.27
2023-05-23T16:20:58.127Z,3.77
2023-05-23T16:23:24.831Z,4.53
2023-05-23T16:25:51.539Z,6.63
2023-05-23T16:28:18.678Z,4.67
2023-05-23T16:30:45.518Z,2.73
2023-05-23T16:33:12.263Z,5.17
2023-05-23T16:35:39.706Z,5.07
2023-05-23T16:38:06.565Z,3.17
2023-05-23T16:40:33.221Z,7.43
2023-05-23T16:42:59.883Z,3.80
2023-05-23T16:45:26.485Z,5.37
2023-05-23T16:47:53.372Z,3.70
2023-05-23T16:50:20.020Z,4.47
2023-05-23T16:52:46.684Z,6.60
2023-05-23T16:55:13.496Z,5.73
2023-05-23T16:57:40.262Z,3.47
2023-05-23T17:00:07.775Z,3.67
2023-05-23T17:02:34.630Z,5.37
2023-05-23T17:05:01.426Z,4.13
2023-05-23T17:07:28.031Z,7.87
2023-05-23T17:09:54.658Z,6.37
2023-05-23T17:12:21.678Z,3.93
2023-05-23T17:14:48.942Z,5.37
2023-05-23T17:17:15.658Z,8.87
2023-05-23T17:19:42.525Z,8.87
2023-05-23T17:22:09.287Z,5.63
2023-05-23T17:24:36.806Z,5.57
2023-05-23T17:27:04.030Z,6.00
2023-05-23T17:29:31.301Z,4.40
2023-05-23T17:31:57.986Z,4.30
2023-05-23T17:34:24.719Z,5.90
2023-05-23T17:36:52.656Z,2.63
2023-05-23T17:39:19.692Z,5.13
2023-05-23T17:41:46.626Z,6.87
2023-05-23T17:44:13.261Z,3.97
2023-05-23T17:46:40.175Z,4.97
2023-05-23T17:49:07.136Z,4.17
2023-05-23T17:51:33.737Z,3.83
2023-05-23T17:54:00.700Z,5.23
2023-05-23T17:56:27.333Z,10.73
2023-05-23T17:58:53.982Z,9.77
2023-05-23T18:01:20.786Z,9.50
2023-05-23T18:03:49.037Z,4.37
2023-05-23T18:06:15.910Z,4.00
2023-05-23T18:08:42.529Z,4.57
2023-05-23T18:11:09.516Z,4.73
2023-05-23T18:13:36.208Z,5.57
2023-05-23T18:16:02.832Z,4.17
2023-05-23T18:18:29.548Z,3.90
2023-05-23T18:20:56.360Z,3.03
2023-05-23T18:23:23.168Z,3.77
2023-05-23T18:25:50.012Z,4.57
2023-05-23T18:28:16.705Z,4.70
2023-05-23T18:30:43.621Z,3.60
2023-05-23T18:33:10.660Z,3.43
2023-05-23T18:35:37.574Z,4.47
2023-05-23T18:38:04.272Z,4.17
2023-05-23T18:40:31.253Z,3.50
2023-05-23T18:42:57.904Z,2.83
2023-05-23T18:45:24.561Z,5.50
2023-05-23T18:47:51.323Z,3.07
2023-05-23T18:50:18.569Z,4.03
2023-05-23T18:52:45.408Z,2.17
2023-05-23T18:55:12.696Z,4.83
2023-05-23T18:57:39.312Z,6.10
2023-05-23T19:00:07.322Z,4.93
2023-05-23T19:02:34.134Z,5.57
2023-05-23T19:05:02.088Z,6.63
2023-05-23T19:07:28.748Z,5.50
2023-05-23T19:09:55.520Z,2.33
2023-05-23T19:12:22.471Z,2.83
2023-05-23T19:14:49.094Z,3.53
2023-05-23T19:17:16.514Z,3.80
2023-05-23T19:19:43.239Z,1.90
2023-05-23T19:22:10.006Z,2.10
2023-05-23T19:24:37.212Z,4.03
2023-05-23T19:27:04.731Z,3.97
2023-05-23T19:29:31.483Z,4.50
2023-05-23T19:31:58.555Z,5.20
2023-05-23T19:34:25.288Z,4.23
2023-05-23T19:36:51.944Z,6.47
2023-05-23T19:39:19.056Z,3.53
2023-05-23T19:41:45.752Z,4.20
2023-05-23T19:44:13.145Z,7.03
2023-05-23T19:46:40.075Z,4.10
2023-05-23T19:49:08.023Z,6.13
2023-05-23T19:51:34.867Z,5.43
2023-05-23T19:54:01.680Z,1.63
2023-05-23T19:56:28.732Z,4.97
2023-05-23T19:58:55.669Z,2.53
2023-05-23T20:01:22.376Z,7.07
2023-05-23T20:03:49.526Z,4.33
2023-05-23T20:06:16.862Z,4.03
2023-05-23T20:08:43.538Z,7.40
2023-05-23T20:11:10.627Z,7.57
2023-05-23T20:13:38.595Z,4.17
2023-05-23T20:16:07.695Z,3.27
2023-05-23T20:18:34.399Z,3.93
2023-05-23T20:21:03.523Z,8.07
2023-05-23T20:23:31.572Z,2.13
2023-05-23T20:25:58.163Z,10.63
2023-05-23T20:28:25.131Z,6.90
2023-05-23T20:30:51.921Z,5.93
2023-05-23T20:33:19.266Z,6.10
2023-05-23T20:35:48.264Z,11.30
2023-05-23T20:38:18.290Z,5.63
2023-05-23T20:40:45.281Z,8.93
2023-05-23T20:43:12.159Z,10.30
2023-05-23T20:45:38.823Z,9.87
2023-05-23T20:48:05.951Z,3.77
2023-05-23T20:50:33.723Z,8.20
2023-05-23T20:53:02.456Z,7.33
2023-05-23T20:55:29.446Z,3.30
2023-05-23T20:57:56.077Z,4.83
2023-05-23T21:00:22.735Z,10.43
2023-05-23T21:02:49.508Z,3.03
2023-05-23T21:05:16.371Z,7.17
2023-05-23T21:07:43.039Z,3.97
2023-05-23T21:10:09.891Z,4.67
2023-05-23T21:12:36.599Z,6.37
2023-05-23T21:15:03.522Z,10.43
2023-05-23T21:17:30.224Z,12.03
2023-05-23T21:19:56.905Z,3.53
2023-05-23T21:22:23.610Z,6.77
2023-05-23T21:24:50.465Z,7.33
2023-05-23T21:27:17.212Z,8.77
2023-05-23T21:29:43.882Z,5.87
2023-05-23T21:32:10.723Z,6.50
2023-05-23T21:34:37.338Z,10.17
2023-05-23T21:37:04.141Z,6.10
2023-05-23T21:39:39.614Z,5.53
2023-05-23T21:42:14.132Z,11.93
2023-05-23T21:44:41.214Z,7.87
2023-05-23T21:47:08.074Z,6.70
2023-05-23T21:49:35.404Z,7.40
2023-05-23T21:52:02.450Z,7.30
2023-05-23T21:54:29.077Z,9.97
2023-05-23T21:56:55.778Z,4.10
2023-05-23T21:59:22.937Z,9.40
2023-05-23T22:01:49.688Z,10.70
2023-05-23T22:04:19.856Z,7.10
2023-05-23T22:06:47.010Z,4.63
2023-05-23T22:09:15.091Z,11.47
2023-05-23T22:11:43.007Z,2.20
2023-05-23T22:14:10.146Z,7.53
2023-05-23T22:16:39.817Z,9.17
2023-05-23T22:19:08.840Z,9.23
2023-05-23T22:21:36.709Z,4.30
2023-05-23T22:24:03.633Z,4.77
2023-05-23T22:26:30.444Z,4.17
2023-05-23T22:28:57.169Z,7.90
2023-05-23T22:31:24.159Z,11.80
2023-05-23T22:33:51.293Z,6.87
2023-05-23T22:36:18.146Z,9.20
2023-05-23T22:38:45.017Z,6.93
2023-05-23T22:41:11.703Z,4.90
2023-05-23T22:43:38.617Z,5.37
2023-05-23T22:46:05.538Z,8.83
2023-05-23T22:48:33.741Z,4.37
2023-05-23T22:51:01.968Z,8.40
2023-05-23T22:53:29.266Z,5.87
2023-05-23T22:55:56.063Z,6.37
2023-05-23T22:58:22.776Z,6.83
2023-05-23T23:00:49.481Z,8.77
2023-05-23T23:03:16.358Z,6.60
2023-05-23T23:05:44.213Z,6.03
2023-05-23T23:08:10.939Z,8.00
2023-05-23T23:10:38.072Z,6.13
2023-05-23T23:13:04.674Z,3.37
2023-05-23T23:15:33.695Z,7.70
2023-05-23T23:18:01.081Z,5.20
2023-05-23T23:20:28.042Z,6.27
2023-05-23T23:22:54.704Z,6.13
2023-05-23T23:25:21.900Z,7.40
2023-05-23T23:27:48.535Z,13.07
2023-05-23T23:30:15.518Z,9.93
2023-05-23T23:32:42.223Z,8.73
2023-05-23T23:35:09.087Z,6.10
2023-05-23T23:37:35.821Z,13.23
2023-05-23T23:40:02.471Z,10.70
2023-05-23T23:42:29.100Z,9.20
2023-05-23T23:44:56.139Z,6.53
2023-05-23T23:47:22.779Z,7.03
2023-05-23T23:49:49.436Z,7.13
2023-05-23T23:52:16.147Z,7.57
2023-05-23T23:54:42.878Z,10.60
2023-05-23T23:57:13.880Z,8.07
2023-05-23T23:59:44.035Z,8.00
